createdAt,value
2023-01-07T00:02:59.773Z,45.00
2023-01-07T00:05:57.966Z,45.78
2023-01-07T00:08:25.579Z,46.35
2023-01-07T00:10:52.891Z,46.67
2023-01-07T00:13:20.198Z,46.50
2023-01-07T00:15:47.456Z,46.15
2023-01-07T00:18:14.776Z,44.30
2023-01-07T00:20:42.020Z,44.97
2023-01-07T00:23:09.302Z,44.75
2023-01-07T00:25:36.534Z,43.28
2023-01-07T00:28:03.941Z,42.42
2023-01-07T00:30:31.232Z,43.15
2023-01-07T00:33:04.382Z,42.72
2023-01-07T00:35:37.016Z,43.33
2023-01-07T00:38:05.324Z,43.33
2023-01-07T00:40:33.227Z,43.90
2023-01-07T00:43:06.989Z,42.38
2023-01-07T00:45:37.700Z,43.95
2023-01-07T00:48:05.886Z,43.90
2023-01-07T00:50:35.326Z,42.30
2023-01-07T00:53:03.017Z,43.92
2023-01-07T00:55:31.203Z,43.33
2023-01-07T00:57:59.078Z,42.47
2023-01-07T01:00:27.275Z,43.60
2023-01-07T01:02:54.636Z,41.53
2023-01-07T01:05:22.436Z,43.35
2023-01-07T01:07:49.848Z,43.80
2023-01-07T01:10:19.295Z,39.20
2023-01-07T01:12:49.324Z,41.80
2023-01-07T01:15:17.284Z,40.33
2023-01-07T01:17:44.554Z,39.92
2023-01-07T01:20:14.932Z,39.97
2023-01-07T01:22:42.901Z,40.03
2023-01-07T01:25:10.990Z,38.55
2023-01-07T01:27:38.808Z,39.70
2023-01-07T01:30:07.611Z,37.10
2023-01-07T01:32:37.718Z,36.95
2023-01-07T01:35:05.448Z,35.47
2023-01-07T01:37:32.750Z,37.60
2023-01-07T01:40:03.850Z,37.45
2023-01-07T01:42:31.744Z,37.83
2023-01-07T01:45:01.100Z,37.60
2023-01-07T01:47:53.632Z,38.30
2023-01-07T01:50:34.553Z,38.83
2023-01-07T01:53:09.945Z,39.08
2023-01-07T01:56:07.204Z,38.58
2023-01-07T01:58:40.068Z,38.08
2023-01-07T02:01:07.974Z,37.65
2023-01-07T02:03:37.751Z,37.22
2023-01-07T02:06:06.139Z,36.67
2023-01-07T02:08:33.573Z,36.95
2023-01-07T02:11:28.680Z,36.97
2023-01-07T02:13:55.904Z,38.45
2023-01-07T02:16:31.083Z,38.05
2023-01-07T02:19:23.341Z,37.45
2023-01-07T02:22:08.996Z,36.72
2023-01-07T02:25:07.682Z,36.92
2023-01-07T02:27:56.358Z,36.22
2023-01-07T02:30:45.970Z,36.38
2023-01-07T02:33:35.726Z,35.50
2023-01-07T02:36:11.987Z,36.72
2023-01-07T02:38:51.196Z,35.67
2023-01-07T02:41:49.585Z,36.42
2023-01-07T02:44:44.135Z,35.80
2023-01-07T02:47:20.943Z,37.15
2023-01-07T02:49:48.515Z,36.33
2023-01-07T02:52:24.458Z,36.38
2023-01-07T02:55:06.063Z,35.63
2023-01-07T02:58:03.946Z,36.20
2023-01-07T03:00:46.500Z,35.17
2023-01-07T03:03:50.673Z,36.08
2023-01-07T03:06:39.910Z,34.45
2023-01-07T03:09:17.414Z,33.92
2023-01-07T03:11:59.854Z,36.30
2023-01-07T03:14:35.621Z,36.70
2023-01-07T03:17:06.823Z,35.70
2023-01-07T03:19:38.169Z,34.47
2023-01-07T03:22:09.078Z,34.70
2023-01-07T03:24:36.507Z,37.50
2023-01-07T03:27:06.196Z,38.40
2023-01-07T03:29:35.729Z,37.25
2023-01-07T03:32:15.374Z,37.60
2023-01-07T03:34:44.010Z,36.10
2023-01-07T03:37:15.043Z,36.80
2023-01-07T03:39:45.696Z,42.20
2023-01-07T03:42:33.572Z,45.63
2023-01-07T03:45:01.079Z,37.80
2023-01-07T03:47:31.326Z,43.00
2023-01-07T03:49:58.720Z,41.97
2023-01-07T03:52:26.205Z,45.17
2023-01-07T03:54:53.751Z,44.67
2023-01-07T03:57:22.079Z,44.70
2023-01-07T03:59:49.374Z,45.75
2023-01-07T04:02:16.876Z,43.80
2023-01-07T04:04:44.252Z,45.53
2023-01-07T04:07:13.615Z,47.33
2023-01-07T04:09:41.267Z,46.95
2023-01-07T04:12:09.572Z,45.75
2023-01-07T04:14:36.879Z,45.40
2023-01-07T04:17:04.114Z,45.88
2023-01-07T04:19:31.799Z,45.53
2023-01-07T04:21:59.269Z,46.38
2023-01-07T04:24:26.640Z,46.10
2023-01-07T04:26:54.125Z,45.10
2023-01-07T04:29:23.290Z,45.67
2023-01-07T04:31:50.648Z,42.78
2023-01-07T04:34:18.195Z,47.75
2023-01-07T04:36:45.420Z,46.53
2023-01-07T04:39:13.339Z,46.60
2023-01-07T04:41:40.799Z,44.60
2023-01-07T04:44:08.993Z,44.58
2023-01-07T04:46:36.370Z,46.67
2023-01-07T04:49:04.211Z,45.03
2023-01-07T04:51:31.621Z,45.17
2023-01-07T04:53:59.439Z,45.17
2023-01-07T04:56:27.188Z,46.13
2023-01-07T04:58:55.063Z,45.08
2023-01-07T05:01:23.150Z,46.70
2023-01-07T05:03:50.634Z,47.47
2023-01-07T05:06:18.900Z,46.15
2023-01-07T05:08:46.583Z,47.88
2023-01-07T05:11:15.441Z,45.70
2023-01-07T05:13:44.268Z,47.33
2023-01-07T05:16:11.648Z,46.03
2023-01-07T05:18:40.901Z,47.33
2023-01-07T05:21:10.470Z,47.15
2023-01-07T05:23:38.876Z,47.88
2023-01-07T05:26:06.396Z,45.78
2023-01-07T05:28:33.788Z,46.05
2023-01-07T05:31:02.605Z,44.72
2023-01-07T05:33:31.591Z,45.97
2023-01-07T05:35:58.920Z,45.33
2023-01-07T05:38:26.146Z,46.67
2023-01-07T05:40:53.463Z,45.55
2023-01-07T05:43:24.891Z,46.30
2023-01-07T05:45:52.183Z,47.08
2023-01-07T05:48:19.467Z,47.10
2023-01-07T05:50:46.751Z,44.65
2023-01-07T05:53:14.076Z,45.63
2023-01-07T05:55:41.378Z,45.67
2023-01-07T05:58:08.849Z,46.45
2023-01-07T06:00:36.984Z,46.40
2023-01-07T06:03:05.599Z,45.72
2023-01-07T06:05:33.049Z,46.83
2023-01-07T06:08:00.408Z,45.90
2023-01-07T06:10:27.648Z,47.33
2023-01-07T06:12:54.953Z,46.05
2023-01-07T06:15:22.215Z,46.30
2023-01-07T06:17:49.443Z,47.08
2023-01-07T06:20:16.818Z,45.50
2023-01-07T06:22:44.166Z,47.22
2023-01-07T06:25:12.885Z,47.55
2023-01-07T06:27:43.164Z,46.97
2023-01-07T06:30:11.651Z,47.55
2023-01-07T06:32:43.480Z,46.15
2023-01-07T06:35:11.630Z,46.25
2023-01-07T06:37:39.341Z,46.35
2023-01-07T06:40:07.813Z,47.10
2023-01-07T06:42:35.217Z,44.67
2023-01-07T06:45:02.522Z,44.20
2023-01-07T06:47:29.790Z,43.75
2023-01-07T06:49:57.066Z,43.33
2023-01-07T06:52:24.355Z,44.60
2023-01-07T06:54:51.586Z,44.65
2023-01-07T06:57:18.961Z,44.50
2023-01-07T06:59:46.262Z,46.55
2023-01-07T07:02:21.637Z,49.35
2023-01-07T07:04:49.477Z,50.00
2023-01-07T07:07:17.674Z,49.03
2023-01-07T07:09:45.486Z,46.55
2023-01-07T07:12:13.440Z,46.78
2023-01-07T07:14:40.892Z,45.13
2023-01-07T07:17:08.438Z,46.97
2023-01-07T07:19:35.722Z,45.78
2023-01-07T07:22:04.707Z,45.20
2023-01-07T07:24:32.111Z,43.88
2023-01-07T07:27:00.212Z,44.28
2023-01-07T07:29:27.591Z,44.67
2023-01-07T07:31:54.864Z,46.58
2023-01-07T07:34:22.186Z,46.35
2023-01-07T07:36:49.545Z,45.22
2023-01-07T07:39:16.912Z,46.50
2023-01-07T07:41:44.286Z,46.55
2023-01-07T07:44:11.558Z,45.83
2023-01-07T07:46:40.715Z,46.40
2023-01-07T07:49:08.600Z,41.50
2023-01-07T07:51:35.927Z,42.45
2023-01-07T07:54:03.391Z,41.95
2023-01-07T07:56:32.000Z,43.35
2023-01-07T07:58:59.255Z,42.47
2023-01-07T08:01:27.450Z,38.80
2023-01-07T08:03:54.848Z,37.83
2023-01-07T08:06:22.086Z,36.80
2023-01-07T08:08:49.384Z,39.00
2023-01-07T08:11:16.635Z,37.78
2023-01-07T08:13:44.494Z,38.30
2023-01-07T08:16:11.783Z,39.13
2023-01-07T08:18:39.930Z,37.30
2023-01-07T08:21:07.267Z,37.42
2023-01-07T08:23:34.890Z,38.47
2023-01-07T08:26:03.363Z,37.25
2023-01-07T08:28:31.898Z,36.15
2023-01-07T08:31:06.336Z,36.80
2023-01-07T08:33:37.598Z,35.75
2023-01-07T08:36:09.311Z,32.00
2023-01-07T08:38:39.541Z,31.63
2023-01-07T08:41:06.870Z,32.88
2023-01-07T08:43:35.341Z,30.90
2023-01-07T08:46:02.818Z,30.05
2023-01-07T08:48:30.049Z,28.67
2023-01-07T08:50:57.282Z,30.48
2023-01-07T08:53:25.399Z,28.73
2023-01-07T08:55:52.781Z,30.45
2023-01-07T08:58:20.061Z,30.00
2023-01-07T09:00:47.308Z,29.73
2023-01-07T09:03:14.582Z,30.27
2023-01-07T09:05:41.824Z,28.60
2023-01-07T09:08:09.171Z,29.05
2023-01-07T09:10:36.429Z,28.27
2023-01-07T09:13:03.710Z,29.45
2023-01-07T09:15:31.032Z,28.50
2023-01-07T09:17:58.294Z,27.65
2023-01-07T09:20:25.531Z,28.13
2023-01-07T09:22:52.806Z,27.70
2023-01-07T09:25:20.159Z,26.85
2023-01-07T09:27:47.515Z,28.52
2023-01-07T09:30:15.184Z,26.80
2023-01-07T09:32:43.305Z,30.08
2023-01-07T09:35:11.087Z,28.98
2023-01-07T09:37:38.626Z,26.92
2023-01-07T09:40:07.839Z,27.30
2023-01-07T09:42:37.779Z,27.55
2023-01-07T09:45:10.925Z,27.13
2023-01-07T09:47:43.295Z,29.13
2023-01-07T09:50:16.939Z,27.50
2023-01-07T09:52:50.187Z,26.98
2023-01-07T09:55:39.229Z,25.75
2023-01-07T09:58:26.932Z,27.38
2023-01-07T10:01:00.370Z,26.98
2023-01-07T10:03:51.626Z,26.65
2023-01-07T10:06:43.130Z,25.85
2023-01-07T10:09:30.402Z,26.48
2023-01-07T10:12:12.320Z,26.38
2023-01-07T10:14:51.996Z,26.75
2023-01-07T10:17:54.530Z,28.00
2023-01-07T10:20:37.556Z,27.63
2023-01-07T10:23:14.226Z,27.52
2023-01-07T10:25:47.731Z,29.20
2023-01-07T10:28:25.167Z,27.83
2023-01-07T10:30:52.521Z,29.02
2023-01-07T10:33:26.823Z,28.52
2023-01-07T10:36:03.714Z,27.58
2023-01-07T10:38:35.265Z,27.95
2023-01-07T10:41:09.141Z,27.83
2023-01-07T10:44:03.423Z,27.15
2023-01-07T10:47:01.843Z,27.05
2023-01-07T10:50:17.592Z,26.60
2023-01-07T10:52:57.799Z,28.23
2023-01-07T10:55:43.787Z,26.83
2023-01-07T10:58:11.983Z,26.80
2023-01-07T11:00:40.546Z,25.90
2023-01-07T11:03:21.150Z,28.33
2023-01-07T11:05:59.468Z,28.42
2023-01-07T11:08:34.144Z,27.35
2023-01-07T11:11:03.461Z,30.95
2023-01-07T11:13:33.675Z,30.58
2023-01-07T11:16:22.285Z,29.00
2023-01-07T11:18:55.114Z,30.70
2023-01-07T11:21:42.756Z,29.73
2023-01-07T11:24:31.709Z,28.95
2023-01-07T11:27:14.105Z,29.67
2023-01-07T11:29:45.829Z,27.92
2023-01-07T11:32:26.182Z,29.90
2023-01-07T11:34:56.474Z,29.17
2023-01-07T11:37:38.721Z,29.17
2023-01-07T11:40:15.238Z,31.00
2023-01-07T11:42:53.833Z,30.42
2023-01-07T11:45:24.017Z,31.92
2023-01-07T11:48:25.039Z,34.88
2023-01-07T11:51:01.663Z,33.83
2023-01-07T11:53:43.859Z,34.58
2023-01-07T11:56:19.789Z,34.67
2023-01-07T11:58:51.975Z,34.72
2023-01-07T12:01:22.688Z,32.65
2023-01-07T12:03:53.286Z,32.38
2023-01-07T12:06:30.325Z,32.30
2023-01-07T12:09:26.027Z,32.60
2023-01-07T12:11:56.482Z,34.13
2023-01-07T12:14:37.738Z,31.58
2023-01-07T12:17:21.248Z,33.83
2023-01-07T12:20:25.034Z,33.53
2023-01-07T12:23:21.277Z,35.20
2023-01-07T12:25:54.651Z,31.83
2023-01-07T12:28:43.828Z,32.70
2023-01-07T12:31:39.804Z,33.55
2023-01-07T12:34:16.055Z,32.13
2023-01-07T12:36:48.085Z,34.13
2023-01-07T12:39:35.287Z,32.80
2023-01-07T12:42:15.831Z,31.63
2023-01-07T12:44:54.338Z,32.45
2023-01-07T12:47:31.249Z,30.88
2023-01-07T12:50:22.966Z,30.67
2023-01-07T12:52:57.196Z,32.00
2023-01-07T12:55:35.831Z,32.45
2023-01-07T12:58:18.127Z,30.50
2023-01-07T13:01:22.119Z,32.03
2023-01-07T13:04:05.346Z,30.48
2023-01-07T13:06:44.982Z,31.05
2023-01-07T13:09:29.837Z,29.58
2023-01-07T13:12:42.048Z,30.98
2023-01-07T13:15:20.767Z,29.58
2023-01-07T13:17:49.843Z,29.98
2023-01-07T13:20:22.610Z,31.63
2023-01-07T13:22:54.990Z,30.17
2023-01-07T13:25:25.108Z,30.52
2023-01-07T13:28:10.866Z,30.67
2023-01-07T13:30:59.979Z,31.75
2023-01-07T13:33:43.858Z,29.40
2023-01-07T13:36:34.502Z,31.60
2023-01-07T13:39:07.584Z,32.97
2023-01-07T13:41:56.368Z,32.55
2023-01-07T13:44:41.597Z,32.22
2023-01-07T13:47:13.128Z,31.13
2023-01-07T13:49:56.964Z,30.50
2023-01-07T13:52:27.959Z,30.75
2023-01-07T13:54:56.911Z,31.85
2023-01-07T13:57:24.087Z,31.25
2023-01-07T13:59:53.819Z,30.73
2023-01-07T14:02:29.384Z,29.80
2023-01-07T14:05:12.185Z,31.58
2023-01-07T14:07:50.744Z,29.50
2023-01-07T14:10:36.007Z,31.35
2023-01-07T14:13:27.521Z,32.45
2023-01-07T14:16:23.821Z,30.90
2023-01-07T14:19:07.166Z,30.38
2023-01-07T14:21:44.834Z,32.78
2023-01-07T14:24:33.080Z,32.58
2023-01-07T14:27:12.129Z,31.33
2023-01-07T14:29:46.240Z,30.15
2023-01-07T14:32:27.494Z,30.08
2023-01-07T14:35:11.682Z,29.45
2023-01-07T14:37:46.920Z,30.23
2023-01-07T14:40:46.343Z,29.95
2023-01-07T14:43:55.911Z,29.52
2023-01-07T14:46:23.307Z,31.52
2023-01-07T14:49:28.228Z,32.33
2023-01-07T14:52:10.282Z,29.38
2023-01-07T14:55:11.692Z,32.25
2023-01-07T14:58:11.162Z,30.77
2023-01-07T15:00:59.323Z,31.50
2023-01-07T15:03:35.745Z,32.05
2023-01-07T15:09:31.491Z,33.88
2023-01-07T15:12:23.010Z,33.42
2023-01-07T15:15:24.025Z,32.15
2023-01-07T15:17:51.390Z,33.10
2023-01-07T15:20:19.099Z,33.22
2023-01-07T15:22:56.654Z,32.53
2023-01-07T15:25:39.758Z,33.17
2023-01-07T15:28:11.816Z,32.95
2023-01-07T15:30:50.649Z,34.00
2023-01-07T15:33:45.889Z,33.75
2023-01-07T15:36:15.616Z,33.72
2023-01-07T15:38:49.508Z,34.60
2023-01-07T15:41:23.845Z,33.45
2023-01-07T15:43:52.021Z,32.75
2023-01-07T15:46:21.225Z,32.05
2023-01-07T15:49:05.752Z,32.75
2023-01-07T15:52:05.462Z,33.15
2023-01-07T15:54:35.545Z,32.40
2023-01-07T15:57:05.926Z,34.35
2023-01-07T15:59:36.047Z,33.35
2023-01-07T16:02:23.028Z,35.95
2023-01-07T16:04:53.317Z,35.15
2023-01-07T16:07:24.041Z,35.60
2023-01-07T16:09:52.328Z,36.00
2023-01-07T16:12:24.765Z,35.13
2023-01-07T16:14:52.071Z,36.83
2023-01-07T16:17:19.832Z,59.78
2023-01-07T16:19:47.545Z,44.25
2023-01-07T16:22:21.523Z,40.03
2023-01-07T16:24:52.295Z,37.55
2023-01-07T16:27:28.836Z,48.05
2023-01-07T16:30:02.786Z,45.78
2023-01-07T16:32:31.006Z,44.47
2023-01-07T16:35:06.987Z,44.17
2023-01-07T16:37:39.815Z,41.45
2023-01-07T16:40:30.676Z,41.35
2023-01-07T16:43:00.765Z,39.50
2023-01-07T16:45:32.587Z,40.42
2023-01-07T16:48:14.090Z,38.78
2023-01-07T16:50:44.229Z,38.63
2023-01-07T16:53:27.116Z,37.65
2023-01-07T16:56:02.373Z,37.22
2023-01-07T16:58:47.935Z,37.40
2023-01-07T17:01:30.187Z,36.70
2023-01-07T17:04:00.643Z,48.60
2023-01-07T17:06:40.708Z,37.95
2023-01-07T17:09:26.883Z,33.97
2023-01-07T17:11:56.179Z,33.80
2023-01-07T17:14:39.918Z,35.92
2023-01-07T17:17:33.995Z,38.17
2023-01-07T17:20:22.946Z,37.03
2023-01-07T17:22:51.624Z,40.63
2023-01-07T17:25:24.612Z,38.10
2023-01-07T17:27:59.870Z,36.30
2023-01-07T17:30:37.693Z,39.07
2023-01-07T17:33:05.536Z,39.15
2023-01-07T17:35:35.945Z,39.20
2023-01-07T17:38:12.515Z,38.10
2023-01-07T17:40:43.644Z,39.08
2023-01-07T17:43:35.851Z,41.80
2023-01-07T17:46:12.993Z,38.75
2023-01-07T17:48:43.679Z,61.83
2023-01-07T17:51:12.161Z,42.40
2023-01-07T17:53:45.743Z,41.28
2023-01-07T17:56:13.669Z,41.35
2023-01-07T17:58:41.722Z,43.33
2023-01-07T18:01:13.189Z,42.10
2023-01-07T18:03:41.366Z,42.10
2023-01-07T18:06:28.008Z,40.70
2023-01-07T18:08:57.169Z,41.85
2023-01-07T18:11:47.614Z,42.72
2023-01-07T18:14:15.600Z,43.95
2023-01-07T18:16:44.111Z,43.20
2023-01-07T18:19:16.928Z,44.42
2023-01-07T18:21:45.026Z,43.00
2023-01-07T18:24:21.423Z,44.40
2023-01-07T18:26:53.280Z,43.50
2023-01-07T18:29:21.765Z,43.17
2023-01-07T18:31:51.980Z,40.90
2023-01-07T18:34:19.794Z,45.80
2023-01-07T18:36:49.107Z,45.35
2023-01-07T18:39:19.966Z,43.67
2023-01-07T18:41:52.606Z,45.20
2023-01-07T18:44:23.385Z,45.78
2023-01-07T18:47:22.126Z,52.33
2023-01-07T18:49:52.669Z,49.45
2023-01-07T18:52:21.027Z,50.15
2023-01-07T18:54:49.133Z,52.90
2023-01-07T18:57:19.175Z,50.70
2023-01-07T18:59:46.933Z,51.70
2023-01-07T19:02:23.574Z,48.75
2023-01-07T19:04:51.482Z,45.95
2023-01-07T19:07:19.713Z,48.55
2023-01-07T19:09:48.346Z,48.00
2023-01-07T19:12:15.753Z,51.97
2023-01-07T19:14:43.033Z,47.72
2023-01-07T19:17:10.812Z,47.67
2023-01-07T19:19:47.986Z,48.40
2023-01-07T19:22:16.702Z,48.05
2023-01-07T19:24:44.380Z,49.45
2023-01-07T19:27:12.172Z,50.72
2023-01-07T19:29:39.470Z,50.10
2023-01-07T19:32:06.958Z,46.92
2023-01-07T19:34:34.342Z,47.72
2023-01-07T19:37:01.608Z,46.35
2023-01-07T19:39:28.918Z,46.67
2023-01-07T19:41:56.276Z,46.30
2023-01-07T19:44:23.564Z,48.97
2023-01-07T19:46:50.874Z,50.28
2023-01-07T19:49:18.312Z,49.47
2023-01-07T19:51:46.037Z,48.60
2023-01-07T19:54:15.923Z,52.55
2023-01-07T19:56:43.774Z,51.42
2023-01-07T19:59:11.532Z,50.13
2023-01-07T20:01:39.460Z,47.05
2023-01-07T20:04:08.169Z,47.55
2023-01-07T20:06:41.176Z,49.22
2023-01-07T20:09:12.323Z,48.05
2023-01-07T20:11:40.525Z,47.28
2023-01-07T20:14:08.002Z,50.08
2023-01-07T20:16:36.979Z,48.85
2023-01-07T20:19:05.785Z,47.53
2023-01-07T20:21:33.513Z,48.72
2023-01-07T20:24:00.973Z,46.92
2023-01-07T20:26:31.098Z,47.00
2023-01-07T20:28:59.785Z,47.05
2023-01-07T20:31:28.738Z,47.53
2023-01-07T20:33:56.124Z,47.60
2023-01-07T20:36:26.024Z,47.80
2023-01-07T20:38:53.904Z,47.28
2023-01-07T20:41:27.119Z,46.70
2023-01-07T20:43:57.214Z,46.33
2023-01-07T20:46:25.947Z,46.63
2023-01-07T20:48:53.299Z,47.58
2023-01-07T20:51:21.024Z,46.05
2023-01-07T20:53:48.454Z,47.80
2023-01-07T20:56:18.892Z,46.67
2023-01-07T20:58:47.227Z,48.65
2023-01-07T21:01:17.063Z,48.30
2023-01-07T21:03:45.795Z,50.95
2023-01-07T21:06:15.556Z,48.22
2023-01-07T21:08:43.450Z,47.20
2023-01-07T21:11:12.980Z,89.07
2023-01-07T21:13:40.408Z,51.63
2023-01-07T21:16:08.183Z,53.65
2023-01-07T21:18:35.987Z,53.15
2023-01-07T21:21:10.363Z,71.05
2023-01-07T21:23:37.731Z,58.15
2023-01-07T21:26:06.920Z,51.45
2023-01-07T21:28:35.201Z,51.97
2023-01-07T21:31:05.969Z,50.90
2023-01-07T21:33:33.425Z,52.90
2023-01-07T21:36:00.731Z,52.30
2023-01-07T21:38:27.987Z,49.50
2023-01-07T21:40:55.221Z,51.22
2023-01-07T21:43:22.504Z,53.15
2023-01-07T21:45:49.859Z,53.50
2023-01-07T21:48:17.244Z,52.38
2023-01-07T21:50:44.509Z,52.20
2023-01-07T21:53:12.831Z,49.22
2023-01-07T21:55:40.076Z,50.58
2023-01-07T21:58:08.000Z,49.85
2023-01-07T22:00:35.349Z,50.83
2023-01-07T22:03:02.775Z,48.88
2023-01-07T22:05:30.196Z,56.22
2023-01-07T22:07:57.516Z,63.20
2023-01-07T22:10:24.764Z,84.07
2023-01-07T22:12:52.107Z,68.10
2023-01-07T22:15:19.538Z,51.90
2023-01-07T22:17:46.847Z,51.40
2023-01-07T22:20:14.114Z,49.10
2023-01-07T22:22:41.736Z,50.00
2023-01-07T22:25:09.547Z,48.55
2023-01-07T22:27:36.800Z,48.90
2023-01-07T22:30:04.489Z,47.60
2023-01-07T22:32:31.833Z,48.78
2023-01-07T22:34:59.061Z,46.35
2023-01-07T22:37:26.784Z,48.20
2023-01-07T22:39:58.389Z,49.92
2023-01-07T22:42:46.605Z,47.13
2023-01-07T22:45:17.828Z,49.20
2023-01-07T22:47:48.404Z,48.03
2023-01-07T22:50:17.007Z,49.10
2023-01-07T22:52:44.667Z,50.13
2023-01-07T22:55:12.715Z,47.55
2023-01-07T22:57:40.759Z,47.50
2023-01-07T23:00:16.319Z,45.60
2023-01-07T23:02:43.663Z,49.25
2023-01-07T23:05:10.982Z,47.22
2023-01-07T23:07:38.212Z,48.53
2023-01-07T23:10:05.953Z,46.25
2023-01-07T23:12:33.183Z,45.85
2023-01-07T23:15:00.403Z,47.22
2023-01-07T23:17:29.095Z,46.53
2023-01-07T23:19:56.320Z,45.92
2023-01-07T23:22:23.621Z,47.30
2023-01-07T23:24:50.839Z,46.53
2023-01-07T23:27:18.133Z,46.83
2023-01-07T23:29:45.488Z,47.05
2023-01-07T23:32:12.822Z,46.05
2023-01-07T23:34:40.194Z,46.47
2023-01-07T23:37:07.718Z,52.78
2023-01-07T23:39:34.988Z,47.10
2023-01-07T23:42:02.196Z,46.30
2023-01-07T23:44:29.429Z,47.22
2023-01-07T23:46:56.838Z,49.97
2023-01-07T23:49:24.094Z,61.80
2023-01-07T23:51:51.400Z,60.17
2023-01-07T23:54:18.649Z,48.85
2023-01-07T23:56:45.855Z,47.28
2023-01-07T23:59:13.201Z,46.83
